ROMMA est une association bénévole à but non lucratif. Votre soutien est indispensable : ADHERER à ROMMA ou FAIRE un DON

Lans-en-Vercors - (38, Isère)

Vercors (990 m)   Longitude: 5° 33' 59'' E   Latitude: 45° 6' 3'' N Station partenaire n°80
 

Détail journalier du     <<     >>

Température Precipitation Humidité Pression Vent Dir Rafale Dir. rafale Ensol.
Heure (°C) (mm) (%) (hPa) (km/h) (km/h) (min)
01:00 -4.6091102100N0
02:00 -4.1091102102N0
03:00 -5.4091102100N0
04:00 -6.4092102002N0
05:00 -7.2092102003N0
06:00 -7.4091102000N0
07:00 -7.3092102003N0
08:00 -5.7093102002N10
09:00 -1.1086101903N60
10:00 2.7069101806NNE60
11:00 4.705610175NE16NE60
12:00 6.305110179NNE23NNE60
13:00 5.6056101612NNO31N30
14:00 4.9055101513NNE29NNO40
15:00 4.6052101412N29N10
16:00 4.305410145SO16OSO0
17:00 3.605610148NNO21NO0
18:00 3.306010147NNO19NNO0
19:00 2.307210146NNO19NO10
20:00 1.308010146N19ONO0
21:00 0.808410141N6N0
22:00 0.108810141N6N0
23:00 0.108910131N6N0
minuit -0.408510133N10OSO0

Graphique du 25-03-2020

 

Serveur OMMA